Mc Guire Air Force Base
KWRI : rendu visible

Aérodrome :











RETROUVEZ-NOUS SUR...

 
LOGIN :

S'inscrire | Disclaimer

   EN    FR    IT 

 









Légende :    VFR   VFR Marginal   IFR   IFR Intensif   IFR Très Intensif
Visi : 
Plafond : 
>= 8 km
>= 3000ft
5 à 8 km
1000 à 3000 ft
1500m à 5 km
500 à 1000 ft
800 à 1500m
200 à 500 ft
< 800m
< 200 ft
Symboles :   Orages  Brouillard  Fortes neiges  Fortes précipitations  Vent > 20 kt






- Altitude de l'aérodrome : 131 ft
- Code IATA : WRI


KWRI - Mc Guire Air Force Base

DERNIER METAR :
  • 051356Z AUTO 00000KT 10SM CLR 27/19 A3003 RMK AO2 SLP168 T02730186 $

METARs EXPIRÉS :
  • 051256Z AUTO 30004KT 10SM CLR 26/20 A3002 RMK AO2 SLP164 T02610195 $
  • 051156Z AUTO 30006KT 10SM CLR 24/20 A3000 RMK AO2 SLP158 70086 T02410198 10241 20202 52020 $

TAF TAF KWRI
Valide du 05 à 10h jusqu'au 06 à 16h UTC


051000Z 0510/0616 27006KT 9999 FEW090 SCT250 QNH2996INS
BECMG 0517/0518 25010KT 9999 SCT050 SCT250 QNH3001INS
BECMG 0600/0601 VRB05KT 9999 SCT035 BKN250 QNH3005INS
BECMG 0611/0612 02009KT 9000 -SHRA BKN035 OVC250 QNH3012INS TX31/0520Z TN19/0610Z
FIR KZNY / Amérique du Nord



MET'MAP, la Météo Aéronautique d'un coup d'oeil ! - Copyright ORBIFLY Décembre 2007 - Disclaimer

ORBIFLY MET'MAP TEAM :

Programmation & Développement : Alexandra Zaïnal
Sur une idée originale de : Baudouin d'Aumeries
Assistance à la programmation : Marc-Olivier Méhu
Soutien technique & logistique : Manuel Goepfert

Contact : metmap@orbifly.com




SOURCES & CREDITS :

   NOAA       Earth
Advisory